createdAt,value
2022-11-09T00:01:12.930Z,13.60
2022-11-09T00:03:45.812Z,14.75
2022-11-09T00:06:18.275Z,12.98
2022-11-09T00:08:51.491Z,14.18
2022-11-09T00:11:24.247Z,14.70
2022-11-09T00:13:56.726Z,14.65
2022-11-09T00:16:29.966Z,14.98
2022-11-09T00:19:02.413Z,14.13
2022-11-09T00:21:35.038Z,13.90
2022-11-09T00:24:07.565Z,11.82
2022-11-09T00:26:40.021Z,11.50
2022-11-09T00:29:12.414Z,11.98
2022-11-09T00:31:45.525Z,9.95
2022-11-09T00:34:20.718Z,15.00
2022-11-09T00:36:53.062Z,14.32
2022-11-09T00:39:25.498Z,14.18
2022-11-09T00:41:57.836Z,14.32
2022-11-09T00:44:30.220Z,17.88
2022-11-09T00:47:03.389Z,17.15
2022-11-09T00:49:35.734Z,15.40
2022-11-09T00:52:08.444Z,13.63
2022-11-09T00:54:41.108Z,16.50
2022-11-09T00:57:13.577Z,14.20
2022-11-09T00:59:49.378Z,14.45
2022-11-09T01:02:22.501Z,15.38
2022-11-09T01:04:55.017Z,13.77
2022-11-09T01:07:27.388Z,13.48
2022-11-09T01:09:59.783Z,13.85
2022-11-09T01:12:32.738Z,13.20
2022-11-09T01:15:06.161Z,12.88
2022-11-09T01:17:40.327Z,11.68
2022-11-09T01:20:13.060Z,13.95
2022-11-09T01:22:45.449Z,12.45
2022-11-09T01:25:17.856Z,12.65
2022-11-09T01:27:50.228Z,11.20
2022-11-09T01:30:22.707Z,11.30
2022-11-09T01:32:55.811Z,12.43
2022-11-09T01:35:28.262Z,11.40
2022-11-09T01:38:01.671Z,12.07
2022-11-09T01:40:36.409Z,10.73
2022-11-09T01:43:16.185Z,9.93
2022-11-09T01:45:51.859Z,11.77
2022-11-09T01:48:34.407Z,11.85
2022-11-09T01:51:13.332Z,14.32
2022-11-09T01:53:49.385Z,13.27
2022-11-09T01:56:22.133Z,13.00
2022-11-09T01:58:57.712Z,13.52
2022-11-09T02:01:31.555Z,11.43
2022-11-09T02:04:09.911Z,12.70
2022-11-09T02:06:43.242Z,12.70
2022-11-09T02:09:23.124Z,10.85
2022-11-09T02:14:29.872Z,9.43
2022-11-09T02:17:02.698Z,10.40
2022-11-09T02:19:36.393Z,9.35
2022-11-09T02:22:10.318Z,10.10
2022-11-09T02:24:42.812Z,10.02
2022-11-09T02:27:15.196Z,9.95
2022-11-09T02:29:49.067Z,8.90
2022-11-09T02:32:24.288Z,9.98
2022-11-09T02:34:58.547Z,8.13
2022-11-09T02:37:37.670Z,11.30
2022-11-09T02:40:14.348Z,10.45
2022-11-09T02:42:46.900Z,9.98
2022-11-09T02:45:19.314Z,9.57
2022-11-09T02:47:51.750Z,10.30
2022-11-09T02:50:24.382Z,9.57
2022-11-09T02:52:57.472Z,9.23
2022-11-09T02:55:32.813Z,11.20
2022-11-09T02:58:05.360Z,12.15
2022-11-09T03:00:37.961Z,10.63
2022-11-09T03:03:11.116Z,12.07
2022-11-09T03:05:43.804Z,11.77
2022-11-09T03:08:17.978Z,11.93
2022-11-09T03:10:51.486Z,12.10
2022-11-09T03:13:23.957Z,11.85
2022-11-09T03:15:56.466Z,11.32
2022-11-09T03:18:28.884Z,10.55
2022-11-09T03:21:02.557Z,12.07
2022-11-09T03:23:35.941Z,10.65
2022-11-09T03:26:08.748Z,12.45
2022-11-09T03:28:42.214Z,12.05
2022-11-09T03:31:14.819Z,10.57
2022-11-09T03:33:47.374Z,11.88
2022-11-09T03:36:20.472Z,10.43
2022-11-09T03:38:53.554Z,9.48
2022-11-09T03:41:26.133Z,9.07
2022-11-09T03:43:58.510Z,9.25
2022-11-09T03:46:30.959Z,10.25
2022-11-09T03:49:03.401Z,9.60
2022-11-09T03:51:35.877Z,9.70
2022-11-09T03:54:09.225Z,10.27
2022-11-09T03:56:41.562Z,10.65
2022-11-09T03:59:13.957Z,9.93
2022-11-09T04:01:46.399Z,9.70
2022-11-09T04:04:18.904Z,10.07
2022-11-09T04:06:51.300Z,9.50
2022-11-09T04:09:24.409Z,10.07
2022-11-09T04:11:56.766Z,10.15
2022-11-09T04:14:29.174Z,10.50
2022-11-09T04:17:01.541Z,9.98
2022-11-09T04:19:34.195Z,7.65
2022-11-09T04:22:06.807Z,6.53
2022-11-09T04:24:39.917Z,8.57
2022-11-09T04:27:12.329Z,7.72
2022-11-09T04:29:44.777Z,7.57
2022-11-09T04:32:17.479Z,7.80
2022-11-09T04:34:49.849Z,8.65
2022-11-09T04:37:22.204Z,8.55
2022-11-09T04:39:55.231Z,8.02
2022-11-09T04:42:27.593Z,7.65
2022-11-09T04:44:59.974Z,8.32
2022-11-09T04:47:32.785Z,8.45
2022-11-09T04:50:06.524Z,7.55
2022-11-09T04:52:39.005Z,9.57
2022-11-09T04:55:12.052Z,7.70
2022-11-09T04:57:44.426Z,7.75
2022-11-09T05:00:17.049Z,7.05
2022-11-09T05:02:49.411Z,7.72
2022-11-09T05:05:21.790Z,7.70
2022-11-09T05:07:54.137Z,10.95
2022-11-09T05:10:27.265Z,11.65
2022-11-09T05:13:01.466Z,11.13
2022-11-09T05:15:35.005Z,9.55
2022-11-09T05:18:08.093Z,9.80
2022-11-09T05:20:40.501Z,10.43
2022-11-09T05:23:31.098Z,10.73
2022-11-09T05:26:04.248Z,7.68
2022-11-09T05:28:36.741Z,10.57
2022-11-09T05:31:09.123Z,10.10
2022-11-09T05:33:41.487Z,8.93
2022-11-09T05:36:13.852Z,8.30
2022-11-09T05:38:46.753Z,8.85
2022-11-09T05:41:19.801Z,8.82
2022-11-09T05:43:52.270Z,10.00
2022-11-09T05:46:25.587Z,11.75
2022-11-09T05:48:57.923Z,13.23
2022-11-09T05:51:30.282Z,12.75
2022-11-09T05:54:02.814Z,13.25
2022-11-09T05:56:35.897Z,12.73
2022-11-09T05:59:08.484Z,13.68
2022-11-09T06:01:41.165Z,12.73
2022-11-09T06:04:13.577Z,11.35
2022-11-09T06:06:46.116Z,12.38
2022-11-09T06:09:18.504Z,12.45
2022-11-09T06:11:52.051Z,12.60
2022-11-09T06:14:24.699Z,10.55
2022-11-09T06:16:57.078Z,11.20
2022-11-09T06:19:29.448Z,12.27
2022-11-09T06:22:01.898Z,13.52
2022-11-09T06:24:35.062Z,13.18
2022-11-09T06:27:08.273Z,14.02
2022-11-09T06:29:40.690Z,14.05
2022-11-09T06:32:13.075Z,13.55
2022-11-09T06:34:47.625Z,14.63
2022-11-09T06:37:20.005Z,17.70
2022-11-09T06:39:52.453Z,18.55
2022-11-09T06:42:25.650Z,15.48
2022-11-09T06:44:58.071Z,12.02
2022-11-09T06:47:30.472Z,14.52
2022-11-09T06:50:02.973Z,17.77
2022-11-09T06:52:35.439Z,24.00
2022-11-09T06:55:09.250Z,19.20
2022-11-09T06:57:42.319Z,14.07
2022-11-09T07:00:16.137Z,15.05
2022-11-09T07:02:48.636Z,15.00
2022-11-09T07:05:21.067Z,12.95
2022-11-09T07:07:53.496Z,9.82
2022-11-09T07:10:25.964Z,8.48
2022-11-09T07:12:59.160Z,8.30
2022-11-09T07:15:31.985Z,8.48
2022-11-09T07:18:07.315Z,8.73
2022-11-09T07:20:39.821Z,8.27
2022-11-09T07:23:12.224Z,9.15
2022-11-09T07:25:44.642Z,9.63
2022-11-09T07:28:17.778Z,9.43
2022-11-09T07:30:52.306Z,7.40
2022-11-09T07:33:25.209Z,9.73
2022-11-09T07:35:58.825Z,9.20
2022-11-09T07:38:31.682Z,9.30
2022-11-09T07:41:04.222Z,9.68
2022-11-09T07:43:37.314Z,9.50
2022-11-09T07:46:10.702Z,8.63
2022-11-09T07:48:43.086Z,8.75
2022-11-09T07:51:15.423Z,8.52
2022-11-09T07:53:47.847Z,8.40
2022-11-09T07:56:20.345Z,8.85
2022-11-09T07:58:54.093Z,9.45
2022-11-09T08:01:26.595Z,9.80
2022-11-09T08:03:58.922Z,8.88
2022-11-09T08:06:31.360Z,9.13
2022-11-09T08:09:03.877Z,10.20
2022-11-09T08:11:36.290Z,11.43
2022-11-09T08:14:09.883Z,9.60
2022-11-09T08:16:42.414Z,10.45
2022-11-09T08:19:14.980Z,9.93
2022-11-09T08:21:47.355Z,10.40
2022-11-09T08:24:19.733Z,10.43
2022-11-09T08:26:52.088Z,8.98
2022-11-09T08:29:25.120Z,9.75
2022-11-09T08:31:57.515Z,9.82
2022-11-09T08:34:29.921Z,8.98
2022-11-09T08:37:04.724Z,9.60
2022-11-09T08:39:37.110Z,8.70
2022-11-09T08:42:09.458Z,8.98
2022-11-09T08:44:42.687Z,8.57
2022-11-09T08:47:15.049Z,8.98
2022-11-09T08:49:47.723Z,10.15
2022-11-09T08:52:20.150Z,9.20
2022-11-09T08:54:52.537Z,9.98
2022-11-09T08:57:25.128Z,8.20
2022-11-09T08:59:58.287Z,8.15
2022-11-09T09:02:30.687Z,10.02
2022-11-09T09:05:03.403Z,9.57
2022-11-09T09:07:35.785Z,9.45
2022-11-09T09:10:08.574Z,9.13
2022-11-09T09:12:40.915Z,8.57
2022-11-09T09:15:13.979Z,7.63
2022-11-09T09:17:46.484Z,8.55
2022-11-09T09:20:19.008Z,9.32
2022-11-09T09:22:51.383Z,8.98
2022-11-09T09:25:24.074Z,9.07
2022-11-09T09:27:56.594Z,9.52
2022-11-09T09:30:29.638Z,10.05
2022-11-09T09:33:02.289Z,9.05
2022-11-09T09:35:34.708Z,9.50
2022-11-09T09:38:07.103Z,10.20
2022-11-09T09:40:50.661Z,9.63
2022-11-09T09:43:28.630Z,8.75
2022-11-09T09:46:05.913Z,9.98
2022-11-09T09:48:43.545Z,10.02
2022-11-09T09:51:21.662Z,8.93
2022-11-09T09:54:01.192Z,9.77
2022-11-09T09:56:38.564Z,9.55
2022-11-09T09:59:19.106Z,10.15
2022-11-09T10:01:52.614Z,9.73
2022-11-09T10:04:32.470Z,11.35
2022-11-09T10:07:12.594Z,10.35
2022-11-09T10:10:00.260Z,9.95
2022-11-09T10:12:46.958Z,9.25
2022-11-09T10:15:25.430Z,8.50
2022-11-09T10:18:17.870Z,10.05
2022-11-09T10:21:06.613Z,9.15
2022-11-09T10:23:49.155Z,10.38
2022-11-09T10:26:27.172Z,9.10
2022-11-09T10:29:15.700Z,9.32
2022-11-09T10:31:51.749Z,8.90
2022-11-09T10:34:29.181Z,8.73
2022-11-09T10:37:09.806Z,10.52
2022-11-09T10:39:49.122Z,8.63
2022-11-09T10:42:44.386Z,10.00
2022-11-09T10:45:37.125Z,8.98
2022-11-09T10:48:33.477Z,10.05
2022-11-09T10:51:40.122Z,8.75
2022-11-09T10:54:34.133Z,9.27
2022-11-09T10:57:25.556Z,9.02
2022-11-09T11:00:18.556Z,8.27
2022-11-09T11:03:15.666Z,9.13
2022-11-09T11:06:14.615Z,9.40
2022-11-09T11:09:16.180Z,9.05
2022-11-09T11:12:14.525Z,8.63
2022-11-09T11:15:21.322Z,10.13
2022-11-09T11:18:22.393Z,9.20
2022-11-09T11:21:18.816Z,9.27
2022-11-09T11:24:17.941Z,8.82
2022-11-09T11:27:16.065Z,10.43
2022-11-09T11:30:11.421Z,9.30
2022-11-09T11:33:05.590Z,8.60
2022-11-09T11:36:04.736Z,10.48
2022-11-09T11:39:02.348Z,9.68
2022-11-09T11:42:10.931Z,10.38
2022-11-09T11:45:38.965Z,9.38
2022-11-09T11:48:54.735Z,8.40
2022-11-09T11:51:53.936Z,8.10
2022-11-09T11:55:01.736Z,10.13
2022-11-09T11:58:08.191Z,9.23
2022-11-09T12:01:12.414Z,9.90
2022-11-09T12:04:29.470Z,10.15
2022-11-09T12:10:31.637Z,10.23
2022-11-09T12:13:55.720Z,8.57
2022-11-09T12:16:52.718Z,9.40
2022-11-09T12:20:03.109Z,9.93
2022-11-09T12:23:11.041Z,10.32
2022-11-09T12:26:16.163Z,10.25
2022-11-09T12:29:19.048Z,9.70
2022-11-09T12:32:20.277Z,11.45
2022-11-09T12:35:27.314Z,10.50
2022-11-09T12:38:21.644Z,9.43
2022-11-09T12:41:16.490Z,9.60
2022-11-09T12:44:17.295Z,9.80
2022-11-09T12:47:15.154Z,10.10
2022-11-09T12:50:11.888Z,9.07
2022-11-09T12:53:04.713Z,9.18
2022-11-09T12:56:00.308Z,9.95
2022-11-09T12:58:51.573Z,8.93
2022-11-09T13:01:50.806Z,8.82
2022-11-09T13:04:55.109Z,9.73
2022-11-09T13:07:49.963Z,9.45
2022-11-09T13:10:41.319Z,11.55
2022-11-09T13:13:32.697Z,10.98
2022-11-09T13:16:35.390Z,10.23
2022-11-09T13:19:53.612Z,10.80
2022-11-09T13:22:59.879Z,9.13
2022-11-09T13:25:52.478Z,11.20
2022-11-09T13:29:05.897Z,9.85
2022-11-09T13:32:23.263Z,9.50
2022-11-09T13:35:44.077Z,10.63
2022-11-09T13:38:36.201Z,9.77
2022-11-09T13:41:42.407Z,9.68
2022-11-09T13:44:37.561Z,10.38
2022-11-09T13:47:36.505Z,15.73
2022-11-09T13:50:29.768Z,18.45
2022-11-09T13:53:29.717Z,11.25
2022-11-09T13:56:31.462Z,9.93
2022-11-09T13:59:27.201Z,11.43
2022-11-09T14:02:20.335Z,15.52
2022-11-09T14:05:27.258Z,10.13
2022-11-09T14:08:22.829Z,11.10
2022-11-09T14:11:38.610Z,10.43
2022-11-09T14:14:51.592Z,11.25
2022-11-09T14:17:56.129Z,11.13
2022-11-09T14:20:54.674Z,15.70
2022-11-09T14:23:45.768Z,17.25
2022-11-09T14:26:37.224Z,10.50
2022-11-09T14:29:32.216Z,10.23
2022-11-09T14:32:26.216Z,10.85
2022-11-09T14:35:22.922Z,10.82
2022-11-09T14:38:18.070Z,10.80
2022-11-09T14:41:19.878Z,10.15
2022-11-09T14:44:17.161Z,12.02
2022-11-09T14:47:15.426Z,11.98
2022-11-09T14:50:14.294Z,10.27
2022-11-09T14:53:06.150Z,10.82
2022-11-09T14:56:02.589Z,9.85
2022-11-09T14:58:56.269Z,10.73
2022-11-09T15:01:59.773Z,25.80
2022-11-09T15:04:55.852Z,24.63
2022-11-09T15:07:48.067Z,22.02
2022-11-09T15:10:39.321Z,20.92
2022-11-09T15:13:32.461Z,17.30
2022-11-09T15:16:27.649Z,18.30
2022-11-09T15:19:23.825Z,20.67
2022-11-09T15:22:47.838Z,18.48
2022-11-09T15:25:53.726Z,12.30
2022-11-09T15:28:46.700Z,12.75
2022-11-09T15:31:37.974Z,11.50
2022-11-09T15:34:38.605Z,13.70
2022-11-09T15:37:46.650Z,11.85
2022-11-09T15:40:37.348Z,14.52
2022-11-09T15:43:28.809Z,21.50
2022-11-09T15:46:22.993Z,21.25
2022-11-09T15:49:16.865Z,19.15
2022-11-09T15:52:11.446Z,19.02
2022-11-09T15:55:02.041Z,17.58
2022-11-09T15:57:52.777Z,19.17
2022-11-09T16:00:44.958Z,18.80
2022-11-09T16:03:36.002Z,18.60
2022-11-09T16:06:27.023Z,19.45
2022-11-09T16:09:18.631Z,19.30
2022-11-09T16:12:10.038Z,18.08
2022-11-09T16:15:00.665Z,17.80
2022-11-09T16:17:52.213Z,17.35
2022-11-09T16:20:43.045Z,19.52
2022-11-09T16:23:33.981Z,18.77
2022-11-09T16:26:25.685Z,18.00
2022-11-09T16:29:16.585Z,18.00
2022-11-09T16:32:07.667Z,23.90
2022-11-09T16:35:23.488Z,24.40
2022-11-09T16:38:10.562Z,22.52
2022-11-09T16:41:03.494Z,20.77
2022-11-09T16:43:56.715Z,20.55
2022-11-09T16:46:48.164Z,18.42
2022-11-09T16:49:39.049Z,19.35
2022-11-09T16:52:29.938Z,17.08
2022-11-09T16:55:21.029Z,20.85
2022-11-09T16:58:12.229Z,19.92
2022-11-09T17:01:11.484Z,17.52
2022-11-09T17:04:03.438Z,18.95
2022-11-09T17:06:55.106Z,15.50
2022-11-09T17:09:46.134Z,15.70
2022-11-09T17:12:37.182Z,17.48
2022-11-09T17:15:28.585Z,15.00
2022-11-09T17:18:20.529Z,18.95
2022-11-09T17:21:13.611Z,15.52
2022-11-09T17:24:05.699Z,19.58
2022-11-09T17:26:56.828Z,22.65
2022-11-09T17:29:47.935Z,22.85
2022-11-09T17:32:40.155Z,22.17
2022-11-09T17:35:35.817Z,24.48
2022-11-09T17:38:28.068Z,23.83
2022-11-09T17:41:20.935Z,19.90
2022-11-09T17:44:11.930Z,27.38
2022-11-09T17:47:03.959Z,27.60
2022-11-09T17:49:54.989Z,22.77
2022-11-09T17:52:47.027Z,22.23
2022-11-09T17:55:38.271Z,24.00
2022-11-09T17:58:29.736Z,22.35
2022-11-09T18:01:21.331Z,23.35
2022-11-09T18:04:12.797Z,22.52
2022-11-09T18:07:04.047Z,26.40
2022-11-09T18:09:55.996Z,36.13
2022-11-09T18:12:48.760Z,33.42
2022-11-09T18:15:39.947Z,29.23
2022-11-09T18:18:31.094Z,27.40
2022-11-09T18:21:24.161Z,21.85
2022-11-09T18:24:15.776Z,25.02
2022-11-09T18:27:07.590Z,21.88
2022-11-09T18:30:01.780Z,21.30
2022-11-09T18:32:53.106Z,23.50
2022-11-09T18:35:44.488Z,23.98
2022-11-09T18:38:36.160Z,22.63
2022-11-09T18:41:28.674Z,19.92
2022-11-09T18:44:20.693Z,20.25
2022-11-09T18:47:15.316Z,18.42
2022-11-09T18:50:07.053Z,18.48
2022-11-09T18:52:58.230Z,21.33
2022-11-09T18:55:51.265Z,23.05
2022-11-09T18:58:42.729Z,17.98
2022-11-09T19:01:34.917Z,18.20
2022-11-09T19:04:26.924Z,18.40
2022-11-09T19:07:18.872Z,22.17
2022-11-09T19:10:10.621Z,22.05
2022-11-09T19:13:07.537Z,22.13
2022-11-09T19:15:58.724Z,22.77
2022-11-09T19:18:53.517Z,24.50
2022-11-09T19:21:47.541Z,25.67
2022-11-09T19:24:38.795Z,25.05
2022-11-09T19:27:31.934Z,24.02
2022-11-09T19:30:27.968Z,24.05
2022-11-09T19:33:20.546Z,24.20
2022-11-09T19:36:31.199Z,23.75
2022-11-09T19:39:22.894Z,26.40
2022-11-09T19:42:16.851Z,26.33
2022-11-09T19:45:11.388Z,22.67
2022-11-09T19:48:03.659Z,20.98
2022-11-09T19:50:55.443Z,21.70
2022-11-09T19:53:52.038Z,18.42
2022-11-09T19:56:43.206Z,20.52
2022-11-09T19:59:37.712Z,23.75
2022-11-09T20:02:31.208Z,16.73
2022-11-09T20:05:22.288Z,20.40
2022-11-09T20:08:14.829Z,18.85
2022-11-09T20:11:08.775Z,17.95
2022-11-09T20:14:02.274Z,19.30
2022-11-09T20:16:53.306Z,19.77
2022-11-09T20:19:44.311Z,20.20
2022-11-09T20:22:37.921Z,16.13
2022-11-09T20:25:29.216Z,18.85
2022-11-09T20:28:21.443Z,33.88
2022-11-09T20:31:15.552Z,33.63
2022-11-09T20:34:08.140Z,33.22
2022-11-09T20:36:59.300Z,20.98
2022-11-09T20:39:50.185Z,20.75
2022-11-09T20:42:41.948Z,16.58
2022-11-09T20:45:36.633Z,16.98
2022-11-09T20:48:52.234Z,18.20
2022-11-09T20:51:39.073Z,21.23
2022-11-09T20:54:29.894Z,18.80
2022-11-09T20:57:21.198Z,16.33
2022-11-09T21:00:13.255Z,17.88
2022-11-09T21:03:05.379Z,18.63
2022-11-09T21:05:59.296Z,19.17
2022-11-09T21:08:52.346Z,17.52
2022-11-09T21:11:57.726Z,13.70
2022-11-09T21:14:48.666Z,12.88
2022-11-09T21:17:40.530Z,10.93
2022-11-09T21:20:32.760Z,9.75
2022-11-09T21:23:41.590Z,10.38
2022-11-09T21:26:50.877Z,9.93
2022-11-09T21:29:50.765Z,8.32
2022-11-09T21:32:41.854Z,9.25
2022-11-09T21:35:33.626Z,9.38
2022-11-09T21:38:24.810Z,9.90
2022-11-09T21:41:36.938Z,12.75
2022-11-09T21:44:29.078Z,13.77
2022-11-09T21:47:20.211Z,15.48
2022-11-09T21:50:12.774Z,17.00
2022-11-09T21:53:11.287Z,15.50
2022-11-09T21:56:02.326Z,15.52
2022-11-09T21:58:53.576Z,19.52
2022-11-09T22:01:44.789Z,17.25
2022-11-09T22:04:35.948Z,17.15
2022-11-09T22:07:27.071Z,15.75
2022-11-09T22:10:18.972Z,15.18
2022-11-09T22:13:31.146Z,19.83
2022-11-09T22:16:23.460Z,17.85
2022-11-09T22:19:32.521Z,17.10
2022-11-09T22:22:23.752Z,15.27
2022-11-09T22:25:14.993Z,13.10
2022-11-09T22:28:06.705Z,15.25
2022-11-09T22:31:00.185Z,17.15
2022-11-09T22:33:51.831Z,14.85
2022-11-09T22:36:42.805Z,15.68
2022-11-09T22:39:33.909Z,11.73
2022-11-09T22:42:24.913Z,12.68
2022-11-09T22:45:16.667Z,11.80
2022-11-09T22:48:07.481Z,12.88
2022-11-09T22:50:58.624Z,11.70
2022-11-09T22:53:50.604Z,10.48
2022-11-09T22:56:41.486Z,10.48
2022-11-09T22:59:32.321Z,10.63
2022-11-09T23:02:24.143Z,10.80
2022-11-09T23:05:15.806Z,8.57
2022-11-09T23:08:07.121Z,10.07
2022-11-09T23:10:58.239Z,8.68
2022-11-09T23:13:49.818Z,9.00
2022-11-09T23:16:40.533Z,8.73
2022-11-09T23:19:31.723Z,9.15
2022-11-09T23:22:22.781Z,8.30
2022-11-09T23:25:32.312Z,8.00
2022-11-09T23:28:23.062Z,7.25
2022-11-09T23:31:15.387Z,8.10
2022-11-09T23:34:10.246Z,8.73
2022-11-09T23:37:02.210Z,8.48
2022-11-09T23:39:53.435Z,7.72
2022-11-09T23:42:44.514Z,7.20
2022-11-09T23:45:36.963Z,8.57
2022-11-09T23:48:28.067Z,6.65
2022-11-09T23:51:19.087Z,7.25
2022-11-09T23:54:10.742Z,7.40
2022-11-09T23:57:01.819Z,7.38
2022-11-09T23:59:52.650Z,6.30
